Main page
METAR-TAF:

METAR-TAF

Airports :

Nice Côte d'Azur Airport

Nice, France

latitude: 43-39N, longitude: 007-12E, elevation: 4 m

Current weather observation

The report was made 28 minutes ago, at 14:30 UTC
Wind 12 kt from the East
Temperature 23°C
Humidity 69%
Pressure 1017 hPa
Visibility 10 km or more
Few clouds at a height of 2000 ft

METAR: LFMN 171430Z 10012KT 9999 FEW020 23/17 Q1017 NOSIG

Time: 16:58 (14:58 UTC)

Forecast

The report was made 58 minutes ago, at 14:00 UTC
Forecast valid from 17 at 15 UTC to 18 at 21 UTC
Wind 12 kt from the East/Southeast
Visibility 10 km or more
Few clouds at a height of 2000 ft
Becoming
from 17 at 22 UTC to 17 at 24 UTC
Wind 8 kt from the North/Northwest
Becoming
from 18 at 10 UTC to 18 at 12 UTC
Wind 12 kt from the East/Northeast

TAF: LFMN 171400Z 1715/1821 11012KT 9999 FEW020 BECMG 1722/1724 33008KT BECMG 1810/1812 07012KT

Weather observations and forecasts of more than 4000 airports (METAR and TAF reports).

The available stations are represented by yellow and red dots on the map.

Hover mouse over dot to see the name of the station.

Then click to see weather observations and forecasts.

To change the map : click on the green buttons with a black cross to zoom in, on the green button with a dash to zoom out, or on the green arrows for adjacent maps.


METAR-TAF: